Station: Bourke  

  Atmospheric Gas Attenuation - ITU Rec 676-11   ----------------- dB/100km -----------------
Date Time Temp RH % AH g/m3 Dew Point Wind Direction Speed kph Gust kph Barometer mB Rainfall Since 9am 24GHz 47GHz 76GHz 122GHz 134GHz 241GHz
08/05 12:30 17.6 40 6 3.9 15 24 1025.8 0 13.9 21.4 29.0 75.4 63.4 216.0
08/05 12:20 17.5 40 5.96 3.8 15 17 1026 0 13.8 21.4 28.9 75.2 63.0 214.6
08/05 12:10 16.9 41 5.9 3.6 19 22 1026.2 0 13.7 21.5 28.9 75.2 62.8 213.8
08/05 12:00 16.9 40 5.75 3.2 13 20 1026.2 0 13.4 21.2 28.4 73.8 61.1 207.8
08/05 11:50 16.4 40 5.58 2.8 15 19 1026.4 0 13.1 21.1 28.0 72.7 59.5 202.2
08/05 11:40 16.2 41 5.65 2.9 17 22 1026.6 0 13.2 21.3 28.3 73.5 60.5 205.6
08/05 11:30 16.2 41 5.65 2.9 15 20 1026.5 0 13.2 21.3 28.3 73.5 60.5 205.5
08/05 11:20 16.3 41 5.69 3 22 26 1026.8 0 13.3 21.3 28.4 73.8 60.9 207.0
08/05 11:10 15.7 42 5.62 2.8 17 19 1026.9 0 13.2 21.4 28.4 73.7 60.5 205.6
08/05 11:00 15.6 42 5.59 2.7 17 28 1027 0 13.1 21.3 28.3 73.5 60.2 204.7
08/05 10:50 15.5 42 5.55 2.7 22 28 1027.2 0 13.0 21.3 28.2 73.2 59.9 203.3
08/05 10:40 15.1 43 5.55 2.6 22 24 1027.3 0 13.1 21.4 28.3 73.6 60.2 204.4
08/05 10:30 14.7 43 5.41 2.3 19 26 1027.2 0 12.8 21.3 28.0 72.6 58.8 199.6
08/05 10:20 14.4 44 5.44 2.3 19 24 1027.5 0 12.9 21.4 28.2 73.2 59.4 201.6
08/05 10:10 15 44 5.64 2.9 17 20 1027.6 0 13.3 21.6 28.7 74.6 61.3 208.4
08/05 10:00 14.1 45 5.46 2.4 19 26 1027.7 0 12.9 21.5 28.4 73.7 59.9 203.2
08/05 09:50 13.6 44 5.18 1.6 24 28 1027.9 0 12.3 21.3 27.6 71.5 57.0 192.9
08/05 09:40 13.3 45 5.2 1.6 15 20 1027.9 0 12.4 21.3 27.7 72.0 57.4 194.5
08/05 09:30 13.5 46 5.38 2.1 15 20 1027.9 0 12.8 21.6 28.3 73.5 59.4 201.4
08/05 09:20 12.5 47 5.17 1.5 13 15 1028 0 12.3 21.5 27.9 72.4 57.6 195.1
08/05 09:10 12.3 48 5.21 1.6 11 15 1028 0 12.4 21.6 28.1 73.0 58.3 197.3
08/05 09:00 11.1 50 5.04 1.1 9 11 1028 0 12.1 21.6 27.9 72.4 57.1 193.0
08/05 08:50 10.5 51 4.95 0.8 9 11 1028 0 12.0 21.6 27.8 72.0 56.4 190.6
08/05 08:40 9.8 53 4.92 0.7 9 11 1027.9 0 11.9 21.8 27.9 72.4 56.6 191.0
08/05 08:30 9.3 54 4.85 0.5 9 11 1027.8 0 11.8 21.8 27.8 72.1 56.0 189.2
08/05 08:20 8.6 56 4.81 0.3 7 9 1027.7 0 11.7 21.9 27.9 72.3 56.0 189.1
08/05 08:10 8.1 58 4.83 0.3 7 7 1027.6 0 11.8 22.0 28.1 73.0 56.6 191.1
08/05 08:00 7.2 59 4.63 -0.3 6 9 1027.6 0 11.4 21.9 27.7 71.8 54.8 184.5
08/05 07:50 6.4 60 4.47 -0.8 2 6 1027.6 0 11.1 21.9 27.4 70.9 53.3 179.3
08/05 07:40 5.7 62 4.41 -1 6 6 1027.5 0 11.0 22.0 27.4 70.9 53.1 178.2
08/05 07:30 4.6 62 4.11 -2 0 0 1027.2 0 10.3 21.7 26.6 68.8 50.0 167.2
08/05 07:20 3.5 62 3.82 -3.1 0 0 1027.2 0 9.8 21.6 25.8 66.8 47.0 156.6
08/05 07:10 3.2 63 3.8 -3.1 0 2 1027.2 0 9.7 21.6 25.9 66.8 46.9 156.3
08/05 07:00 2.8 64 3.76 -3.3 6 7 1027 0 9.7 21.6 25.8 66.8 46.7 155.3
08/05 06:50 2.7 65 3.79 -3.2 6 7 1026.9 0 9.7 21.7 26.0 67.1 47.1 156.8
08/05 06:40 2.7 65 3.79 -3.2 6 7 1026.9 0 9.7 21.7 26.0 67.1 47.1 156.8
08/05 06:30 2.7 65 3.79 -3.2 6 7 1026.8 0 9.7 21.7 26.0 67.1 47.1 156.8
08/05 06:20 2.7 64 3.73 -3.4 4 6 1026.9 0 9.6 21.6 25.7 66.5 46.3 154.1
08/05 06:10 2.8 65 3.82 -3.1 7 7 1026.8 0 9.8 21.7 26.0 67.4 47.4 157.9
08/05 06:00 2.5 64 3.68 -3.6 6 7 1026.7 0 9.5 21.6 25.6 66.2 45.8 152.2
08/05 05:50 2.5 62 3.57 -4 6 6 1026.7 0 9.3 21.4 25.2 65.0 44.4 147.4
08/05 05:40 2.7 61 3.56 -4.1 2 6 1026.7 0 9.2 21.3 25.1 64.8 44.2 146.5
08/05 05:30 3.1 62 3.71 -3.5 7 7 1026.6 0 9.5 21.5 25.5 66.0 45.8 152.4
08/05 05:20 3.1 61 3.65 -3.7 7 7 1026.6 0 9.4 21.4 25.3 65.4 45.1 149.8
08/05 05:10 3.5 61 3.75 -3.3 6 6 1026.6 0 9.6 21.4 25.5 66.0 46.1 153.4
08/05 05:00 3.9 62 3.92 -2.7 0 6 1026.5 0 10.0 21.6 26.1 67.4 48.0 160.1
08/05 04:50 3.7 60 3.74 -3.3 0 0 1026.6 0 9.6 21.4 25.4 65.8 45.9 152.6
08/05 04:40 4.2 59 3.8 -3.1 0 0 1026.5 0 9.7 21.3 25.5 66.0 46.3 154.3
08/05 04:30 4.8 58 3.89 -2.7 6 6 1026.5 0 9.9 21.3 25.7 66.4 47.1 157.1
08/05 04:20 5.4 58 4.05 -2.2 6 6 1026.5 0 10.2 21.4 26.1 67.5 48.7 162.8
08/05 04:10 5.7 57 4.06 -2.1 7 7 1026.4 0 10.2 21.4 26.0 67.3 48.6 162.7
08/05 04:00 5.9 56 4.04 -2.2 9 11 1026.2 0 10.2 21.3 25.9 66.9 48.3 161.4
08/05 03:50 6.2 56 4.12 -1.9 11 11 1026.2 0 10.3 21.3 26.1 67.5 49.1 164.2
08/05 03:40 6.2 56 4.12 -1.9 9 11 1026.3 0 10.3 21.3 26.1 67.5 49.1 164.2
08/05 03:30 6.1 55 4.02 -2.2 9 11 1026.2 0 10.1 21.2 25.7 66.5 47.9 160.1
08/05 03:20 6.4 54 4.03 -2.2 9 11 1026.3 0 10.1 21.2 25.7 66.4 47.8 159.9
08/05 03:10 6.5 54 4.05 -2.1 9 11 1026.4 0 10.2 21.2 25.7 66.5 48.0 160.6
08/05 03:00 6.3 55 4.07 -2.1 9 13 1026.3 0 10.2 21.3 25.9 66.9 48.4 161.9
08/05 02:50 6.2 53 3.9 -2.7 9 11 1026.5 0 9.9 21.0 25.3 65.3 46.4 154.8
08/05 02:40 6.4 52 3.88 -2.7 9 11 1026.5 0 9.8 21.0 25.1 64.9 46.0 153.5
08/05 02:30 6.8 52 3.98 -2.4 9 11 1026.4 0 10.0 21.0 25.4 65.6 47.0 157.0
08/05 02:20 6.7 51 3.88 -2.7 7 9 1026.6 0 9.8 20.9 25.0 64.7 45.9 153.0
08/05 02:10 7 51 3.95 -2.4 7 7 1026.5 0 9.9 20.9 25.2 65.1 46.5 155.4
08/05 02:00 6.9 51 3.93 -2.5 9 11 1026.4 0 9.9 20.9 25.2 65.0 46.3 154.7
08/05 01:50 6.5 51 3.83 -2.9 9 11 1026.5 0 9.7 20.9 24.9 64.4 45.4 151.2
08/05 01:40 6.5 49 3.68 -3.4 9 11 1026.4 0 9.4 20.6 24.4 62.9 43.6 144.8
08/05 01:30 7.2 48 3.77 -3.1 9 11 1026.4 0 9.5 20.6 24.5 63.2 44.2 147.4
08/05 01:20 7.5 48 3.84 -2.8 9 9 1026.5 0 9.7 20.6 24.7 63.7 44.9 149.8
08/05 01:10 7.8 47 3.84 -2.8 7 9 1026.5 0 9.7 20.6 24.6 63.4 44.8 149.2
08/05 01:00 8.2 47 3.94 -2.4 11 15 1026.4 0 9.9 20.6 24.8 64.1 45.7 152.7
08/05 00:50 8.9 46 4.03 -2.1 13 13 1026.6 0 10.1 20.6 24.9 64.4 46.4 155.1
08/05 00:40 9.1 45 3.99 -2.2 11 13 1026.7 0 10.0 20.5 24.7 63.9 45.8 153.1
08/05 00:20 9.2 44 3.93 -2.4 13 13 1026.8 0 9.8 20.4 24.5 63.2 45.0 150.4
08/05 00:10 9.4 43 3.89 -2.5 15 15 1026.8 0 9.7 20.3 24.3 62.7 44.5 148.4
08/05 00:00 9.2 43 3.84 -2.7 13 17 1026.8 0 9.6 20.3 24.2 62.4 44.0 146.7
07/05 23:50 9.2 43 3.84 -2.7 11 13 1027 0 9.6 20.3 24.2 62.4 44.0 146.8
07/05 23:40 9.4 42 3.8 -2.8 11 13 1027 0 9.5 20.2 24.0 61.9 43.4 144.8
07/05 23:30 9.8 41 3.8 -2.8 11 13 1026.9 0 9.5 20.1 23.8 61.5 43.2 144.0
07/05 23:20 10.1 40 3.78 -2.9 13 15 1027 0 9.5 20.0 23.7 61.1 42.8 142.7
07/05 23:10 10.3 40 3.83 -2.7 13 15 1027.1 0 9.6 20.0 23.8 61.5 43.3 144.4
07/05 23:00 10.3 40 3.83 -2.7 15 20 1027 0 9.6 20.0 23.8 61.4 43.3 144.4
07/05 22:50 10.3 39 3.74 -3 13 17 1027 0 9.4 19.9 23.5 60.6 42.3 140.8
07/05 22:40 10.5 38 3.69 -3.2 17 19 1027 0 9.3 19.8 23.3 60.0 41.6 138.4
07/05 22:30 10.7 38 3.73 -3 17 24 1026.9 0 9.4 19.8 23.3 60.2 41.9 139.7
07/05 22:20 10.8 37 3.66 -3.3 17 19 1027.2 0 9.2 19.7 23.1 59.5 41.1 136.7
07/05 22:10 10.6 37 3.61 -3.5 17 19 1027.2 0 9.1 19.7 23.0 59.2 40.6 135.0
07/05 22:00 10.7 37 3.63 -3.4 17 20 1027.1 0 9.2 19.7 23.0 59.3 40.8 135.7
07/05 21:50 10.7 37 3.63 -3.4 17 19 1027.2 0 9.2 19.7 23.0 59.3 40.8 135.7
07/05 21:40 10.1 38 3.59 -3.6 15 17 1027.2 0 9.1 19.7 23.0 59.4 40.6 135.1
07/05 21:30 9.9 38 3.55 -3.7 9 13 1027 0 9.0 19.7 23.0 59.1 40.3 133.8
07/05 21:20 10 37 3.48 -4 9 11 1027 0 8.9 19.6 22.7 58.4 39.4 130.8
07/05 21:10 10.6 36 3.51 -3.8 9 11 1027 0 8.9 19.5 22.6 58.3 39.5 131.0
07/05 21:00 11.1 35 3.53 -3.8 13 17 1026.7 0 8.9 19.4 22.5 58.1 39.5 131.0
07/05 20:50 11.5 35 3.62 -3.4 15 17 1026.7 0 9.1 19.5 22.7 58.6 40.3 133.9
07/05 20:40 11 36 3.6 -3.5 13 15 1026.6 0 9.1 19.5 22.8 58.8 40.3 133.9
07/05 20:30 11 36 3.6 -3.5 9 13 1026.3 0 9.1 19.5 22.8 58.8 40.3 133.9
07/05 20:20 11.3 35 3.57 -3.6 7 9 1026.3 0 9.0 19.4 22.6 58.3 39.8 132.2
07/05 20:10 11.7 33 3.45 -4 11 15 1026.3 0 8.7 19.2 22.1 56.9 38.3 126.9
07/05 20:00 11.9 33 3.5 -3.8 11 15 1026.2 0 8.8 19.2 22.2 57.2 38.7 128.5
07/05 19:50 12.2 32 3.45 -4 13 15 1026.1 0 8.7 19.1 22.0 56.5 38.0 126.1

Last Refresh: 08-May-2026 12:07:28

Bureau of Meteorology